Time;durP1;ratioP1;P1;durP2;ratioP2;P2;SDS_P1;SDS_P2;PMS_P1;PMS_P2;Temp;Humidity;BMP_temperature;BMP_pressure;BME280_temperature;BME280_humidity;BME280_pressure;Samples;Min_cycle;Max_cycle;Signal;HPM_P1;HPM_P2
2024/02/27 00:02:29;;;;;;;;;;;;;;;20.13;40.17;94583.50;10501567;28;1951;-81
2024/02/27 00:07:30;;;;;;;;;;;;;;;20.10;40.75;94590.13;10510939;28;1963;-81
2024/02/27 00:12:31;;;;;;;;;;;;;;;20.09;40.28;94593.81;10521082;28;1982;-81
2024/02/27 00:17:31;;;;;;;;;;;;;;;20.06;40.21;94602.31;10509756;28;2118;-82
2024/02/27 00:22:31;;;;;;;;;;;;;;;20.04;40.34;94604.47;10531322;28;1867;-81
2024/02/27 00:27:32;;;;;;;;;;;;;;;20.03;40.51;94602.88;10522872;28;1992;-80
2024/02/27 00:32:32;;;;;;;;;;;;;;;19.98;40.54;94584.59;10526564;28;3029;-82
2024/02/27 00:37:32;;;;;;;;;;;;;;;20.00;40.08;94592.19;10522362;28;1923;-81
2024/02/27 00:42:33;;;;;;;;;;;;;;;19.98;40.35;94595.13;10525404;28;2173;-80
2024/02/27 00:47:33;;;;;;;;;;;;;;;19.97;40.00;94600.69;10520333;28;2069;-81
2024/02/27 00:52:33;;;;;;;;;;;;;;;19.94;39.96;94604.69;10529673;28;2140;-81
2024/02/27 00:57:34;;;;;;;;;;;;;;;19.93;40.69;94613.63;10525732;28;2065;-80
2024/02/27 01:02:35;;;;;;;;;;;;;;;19.92;40.36;94606.84;10525026;28;1963;-80
2024/02/27 01:07:35;;;;;;;;;;;;;;;19.90;40.66;94598.47;10523285;28;2171;-82
2024/02/27 01:12:36;;;;;;;;;;;;;;;19.89;40.44;94607.41;10511104;28;2311;-80
2024/02/27 01:17:36;;;;;;;;;;;;;;;19.86;40.62;94607.25;10508213;28;2582;-81
2024/02/27 01:22:37;;;;;;;;;;;;;;;19.86;40.67;94604.59;10515972;28;2006;-81
2024/02/27 01:27:38;;;;;;;;;;;;;;;19.83;40.56;94607.81;10521921;28;2128;-80
2024/02/27 01:32:38;;;;;;;;;;;;;;;19.82;41.11;94593.91;10520302;28;2096;-79
2024/02/27 01:37:38;;;;;;;;;;;;;;;19.82;41.20;94609.69;10529643;28;2049;-82
2024/02/27 01:42:39;;;;;;;;;;;;;;;19.82;41.32;94603.66;10523319;28;2140;-81
2024/02/27 01:47:39;;;;;;;;;;;;;;;19.79;41.09;94585.81;10527519;28;1906;-82
2024/02/27 01:52:39;;;;;;;;;;;;;;;19.77;41.18;94587.97;10519603;28;2089;-82
2024/02/27 01:57:40;;;;;;;;;;;;;;;19.75;40.73;94596.16;10514544;28;1879;-81
2024/02/27 02:02:43;;;;;;;;;;;;;;;19.74;40.91;94609.59;10502105;28;2113;-82
2024/02/27 02:07:43;;;;;;;;;;;;;;;19.72;40.70;94611.75;10506800;28;2018;-82
2024/02/27 02:12:43;;;;;;;;;;;;;;;19.70;40.63;94627.78;10504124;28;2941;-82
2024/02/27 02:17:44;;;;;;;;;;;;;;;19.69;40.70;94622.84;10501864;28;2053;-80
2024/02/27 02:22:44;;;;;;;;;;;;;;;19.66;40.57;94618.94;10509796;28;2103;-80
2024/02/27 02:27:45;;;;;;;;;;;;;;;19.65;40.32;94632.38;10514413;28;2030;-79
2024/02/27 02:32:46;;;;;;;;;;;;;;;19.64;40.42;94644.00;10504189;28;2041;-80
2024/02/27 02:37:48;;;;;;;;;;;;;;;19.61;40.23;94623.53;10504249;28;1931;-81
2024/02/27 02:42:48;;;;;;;;;;;;;;;19.60;40.31;94620.13;10507025;28;2040;-80
2024/02/27 02:47:49;;;;;;;;;;;;;;;19.58;40.31;94630.16;10505558;28;2017;-81
2024/02/27 02:52:49;;;;;;;;;;;;;;;19.59;40.09;94644.09;10506820;28;2065;-81
2024/02/27 02:57:49;;;;;;;;;;;;;;;19.57;40.16;94643.59;10513484;28;3015;-80
2024/02/27 03:02:50;;;;;;;;;;;;;;;19.54;39.99;94646.81;10510918;28;2200;-81
2024/02/27 03:07:50;;;;;;;;;;;;;;;19.53;40.13;94650.50;10504898;28;2170;-81
2024/02/27 03:12:50;;;;;;;;;;;;;;;19.52;40.10;94654.97;10506058;28;2233;-80
2024/02/27 03:17:51;;;;;;;;;;;;;;;19.52;40.03;94667.34;10505325;28;2136;-81
2024/02/27 03:22:51;;;;;;;;;;;;;;;19.49;39.99;94651.09;10501208;28;2117;-81
2024/02/27 03:27:51;;;;;;;;;;;;;;;19.48;39.88;94657.44;10512876;28;1933;-82
2024/02/27 03:32:52;;;;;;;;;;;;;;;19.45;39.94;94668.50;10506275;28;1993;-80
2024/02/27 03:37:52;;;;;;;;;;;;;;;19.45;39.80;94675.63;10507485;28;3031;-81
2024/02/27 03:42:52;;;;;;;;;;;;;;;19.43;39.68;94660.13;10511171;28;2058;-81
2024/02/27 03:47:52;;;;;;;;;;;;;;;19.42;39.75;94666.47;10510854;28;2053;-81
2024/02/27 03:52:53;;;;;;;;;;;;;;;19.41;39.76;94658.91;10510400;28;2074;-81
2024/02/27 03:57:53;;;;;;;;;;;;;;;19.41;39.61;94682.53;10501256;28;2053;-82
2024/02/27 04:02:53;;;;;;;;;;;;;;;19.39;39.50;94685.44;10508200;28;2100;-81
2024/02/27 04:07:53;;;;;;;;;;;;;;;19.38;39.46;94691.00;10503627;28;2084;-82
2024/02/27 04:12:54;;;;;;;;;;;;;;;19.37;39.38;94694.72;10500626;28;1993;-82
2024/02/27 04:17:54;;;;;;;;;;;;;;;19.36;39.46;94698.38;10502343;28;1968;-81
2024/02/27 04:22:57;;;;;;;;;;;;;;;19.33;39.37;94683.19;10503007;28;2754;-81
2024/02/27 04:27:57;;;;;;;;;;;;;;;19.33;39.29;94696.34;10513631;28;1848;-79
2024/02/27 04:32:57;;;;;;;;;;;;;;;19.32;39.37;94710.53;10501130;28;2000;-82
2024/02/27 04:37:58;;;;;;;;;;;;;;;19.30;39.28;94704.78;10500098;28;2096;-81
2024/02/27 04:42:58;;;;;;;;;;;;;;;19.30;39.42;94708.19;10504239;28;2010;-81
2024/02/27 04:48:00;;;;;;;;;;;;;;;19.28;39.10;94702.44;10498554;28;2054;-82
2024/02/27 04:53:00;;;;;;;;;;;;;;;19.28;39.37;94710.34;10502198;28;2020;-81
2024/02/27 04:58:01;;;;;;;;;;;;;;;19.27;39.07;94721.09;10503533;28;2033;-82
2024/02/27 05:03:01;;;;;;;;;;;;;;;19.26;39.11;94727.44;10504622;28;1990;-82
2024/02/27 05:08:01;;;;;;;;;;;;;;;19.25;39.15;94729.28;10507745;28;2053;-81
2024/02/27 05:13:02;;;;;;;;;;;;;;;19.27;39.00;94724.53;10505095;28;2277;-81
2024/02/27 05:18:03;;;;;;;;;;;;;;;19.30;38.90;94734.47;10510518;28;2704;-81
2024/02/27 05:23:03;;;;;;;;;;;;;;;19.38;38.61;94749.59;10510336;28;2018;-80
2024/02/27 05:28:03;;;;;;;;;;;;;;;19.44;38.54;94758.94;10509207;28;2054;-80
2024/02/27 05:33:03;;;;;;;;;;;;;;;19.52;38.46;94764.59;10504687;28;2196;-83
2024/02/27 05:38:05;;;;;;;;;;;;;;;19.59;38.41;94765.78;10506321;28;2058;-81
2024/02/27 05:43:05;;;;;;;;;;;;;;;19.65;38.43;94763.84;10506143;28;2223;-80
2024/02/27 05:48:05;;;;;;;;;;;;;;;19.70;38.09;94761.13;10510616;28;2317;-80
2024/02/27 05:53:05;;;;;;;;;;;;;;;19.74;38.03;94773.38;10505953;28;2016;-79
2024/02/27 05:58:06;;;;;;;;;;;;;;;19.80;38.00;94779.34;10509231;28;2038;-79
2024/02/27 06:03:06;;;;;;;;;;;;;;;19.86;37.50;94786.06;10507573;28;1994;-80
2024/02/27 06:08:06;;;;;;;;;;;;;;;19.90;37.76;94800.19;10505993;28;2687;-79
2024/02/27 06:13:07;;;;;;;;;;;;;;;19.93;37.78;94795.13;10503599;28;1989;-79
2024/02/27 06:18:13;;;;;;;;;;;;;;;19.99;37.44;94790.56;10507520;28;2022;-73
2024/02/27 06:23:13;;;;;;;;;;;;;;;20.03;37.30;94809.94;10505682;28;2165;-70
2024/02/27 06:28:13;;;;;;;;;;;;;;;20.05;37.42;94813.06;10499338;28;2105;-78
2024/02/27 06:33:14;;;;;;;;;;;;;;;20.12;37.18;94821.34;10505730;28;1990;-79
2024/02/27 06:38:14;;;;;;;;;;;;;;;20.15;37.22;94833.91;10504360;28;2097;-79
2024/02/27 06:43:14;;;;;;;;;;;;;;;20.18;36.93;94846.47;10506482;28;1982;-80
2024/02/27 06:48:14;;;;;;;;;;;;;;;20.20;37.38;94847.78;10507769;28;2053;-80
2024/02/27 06:53:15;;;;;;;;;;;;;;;20.22;36.62;94850.09;10505132;28;2716;-80
2024/02/27 06:58:15;;;;;;;;;;;;;;;20.25;36.45;94867.97;10499683;28;1968;-79
2024/02/27 07:03:16;;;;;;;;;;;;;;;20.23;36.45;94876.16;10499925;28;2065;-80
2024/02/27 07:08:19;;;;;;;;;;;;;;;20.27;36.52;94871.88;10504298;28;2003;-79
2024/02/27 07:13:19;;;;;;;;;;;;;;;20.29;36.37;94876.81;10507055;28;2010;-79
2024/02/27 07:18:19;;;;;;;;;;;;;;;20.32;36.30;94873.59;10498239;28;2099;-80
2024/02/27 07:23:20;;;;;;;;;;;;;;;20.31;36.38;94868.63;10504938;28;1999;-80
2024/02/27 07:28:20;;;;;;;;;;;;;;;20.35;35.67;94865.13;10513713;28;1976;-81
2024/02/27 07:33:22;;;;;;;;;;;;;;;20.36;35.76;94861.41;10507146;28;2458;-80
2024/02/27 07:38:23;;;;;;;;;;;;;;;20.39;35.82;94860.84;10506497;28;2006;-79
2024/02/27 07:43:23;;;;;;;;;;;;;;;20.43;35.59;94871.56;10503317;28;2220;-80
2024/02/27 07:48:24;;;;;;;;;;;;;;;20.46;35.71;94884.16;10502046;28;1990;-79
2024/02/27 07:53:24;;;;;;;;;;;;;;;20.43;35.94;94884.72;10512059;28;2029;-79
2024/02/27 07:58:24;;;;;;;;;;;;;;;20.47;35.57;94896.22;10507101;28;1963;-79
2024/02/27 08:03:25;;;;;;;;;;;;;;;20.46;35.56;94898.09;10496999;28;2179;-80
2024/02/27 08:08:25;;;;;;;;;;;;;;;20.48;35.59;94898.56;10510243;28;2070;-79
2024/02/27 08:13:25;;;;;;;;;;;;;;;20.52;35.60;94899.56;10500260;28;2104;-79
2024/02/27 08:18:25;;;;;;;;;;;;;;;20.50;35.10;94906.97;10504794;28;2489;-80
2024/02/27 08:23:26;;;;;;;;;;;;;;;20.52;35.47;94904.03;10502044;28;1953;-79
2024/02/27 08:28:26;;;;;;;;;;;;;;;20.53;35.31;94901.09;10501975;28;2123;-80
2024/02/27 08:33:26;;;;;;;;;;;;;;;20.56;35.05;94911.06;10500170;28;2049;-80
2024/02/27 08:38:27;;;;;;;;;;;;;;;20.57;35.09;94909.97;10506718;28;2057;-80
2024/02/27 08:43:29;;;;;;;;;;;;;;;20.60;34.92;94916.50;10511621;28;1894;-79
2024/02/27 08:48:29;;;;;;;;;;;;;;;20.54;35.55;94918.47;10513852;28;2135;-80
2024/02/27 08:53:30;;;;;;;;;;;;;;;20.58;35.15;94932.59;10506678;28;1925;-78
2024/02/27 08:58:31;;;;;;;;;;;;;;;20.59;35.10;94926.25;10529023;28;2093;-79
2024/02/27 09:03:31;;;;;;;;;;;;;;;20.61;34.99;94918.84;10507723;28;2002;-79
2024/02/27 09:08:31;;;;;;;;;;;;;;;20.64;34.92;94928.00;10508894;28;2099;-80
2024/02/27 09:13:32;;;;;;;;;;;;;;;20.66;34.73;94918.75;10513144;28;1935;-79
2024/02/27 09:18:32;;;;;;;;;;;;;;;20.66;34.91;94907.44;10508581;28;2541;-80
2024/02/27 09:23:32;;;;;;;;;;;;;;;20.65;35.02;94911.91;10506045;28;2097;-78
2024/02/27 09:28:33;;;;;;;;;;;;;;;20.65;34.85;94935.63;10502047;28;2124;-79
2024/02/27 09:33:33;;;;;;;;;;;;;;;20.68;34.55;94931.63;10504344;28;2049;-78
2024/02/27 09:38:33;;;;;;;;;;;;;;;20.67;34.87;94935.34;10510971;28;2081;-79
2024/02/27 09:43:34;;;;;;;;;;;;;;;20.70;34.95;94918.94;10510673;28;1967;-79
2024/02/27 09:48:41;;;;;;;;;;;;;;;20.69;34.80;94930.56;10504639;28;2297;-78
2024/02/27 09:53:41;;;;;;;;;;;;;;;20.67;34.99;94945.88;10508081;28;2113;-78
2024/02/27 09:58:42;;;;;;;;;;;;;;;20.68;34.48;94948.22;10495351;28;2021;-77
2024/02/27 10:03:45;;;;;;;;;;;;;;;20.72;34.44;94946.53;10517200;28;2088;-78
2024/02/27 10:08:50;;;;;;;;;;;;;;;20.73;34.75;94944.69;10506035;28;2010;-78
2024/02/27 10:13:50;;;;;;;;;;;;;;;20.69;34.86;94951.63;10500722;28;2561;-79
2024/02/27 10:18:51;;;;;;;;;;;;;;;20.74;34.87;94954.16;10509297;28;1978;-78
2024/02/27 10:23:51;;;;;;;;;;;;;;;20.73;34.20;94963.91;10504017;28;2092;-77
2024/02/27 10:28:54;;;;;;;;;;;;;;;20.76;34.86;94970.44;10505469;28;2243;-79
2024/02/27 10:33:54;;;;;;;;;;;;;;;20.77;34.13;94964.88;10506038;28;2058;-79
2024/02/27 10:39:02;;;;;;;;;;;;;;;20.77;34.82;94959.59;10510134;28;1985;-80
2024/02/27 10:44:02;;;;;;;;;;;;;;;20.76;34.80;94967.81;10507292;28;2064;-79
2024/02/27 10:49:03;;;;;;;;;;;;;;;20.79;34.39;94969.88;10502028;28;2131;-79
2024/02/27 10:54:03;;;;;;;;;;;;;;;20.78;34.59;94976.19;10504449;28;1975;-79
2024/02/27 10:59:04;;;;;;;;;;;;;;;20.77;34.61;94972.78;10507913;28;2244;-79
2024/02/27 11:04:04;;;;;;;;;;;;;;;20.78;34.58;94976.97;10500010;28;2665;-79
2024/02/27 11:09:11;;;;;;;;;;;;;;;20.81;34.61;94978.25;10502776;28;2096;-78
2024/02/27 11:14:12;;;;;;;;;;;;;;;20.79;34.49;94964.59;10510773;28;1902;-79
2024/02/27 11:19:21;;;;;;;;;;;;;;;20.80;34.85;94966.13;10508909;28;1889;-79
2024/02/27 11:24:22;;;;;;;;;;;;;;;20.81;34.61;94975.63;10499400;28;1950;-79
2024/02/27 11:29:22;;;;;;;;;;;;;;;20.83;34.41;94971.63;10510797;28;2104;-79
2024/02/27 11:34:23;;;;;;;;;;;;;;;20.82;34.47;94964.78;10510497;28;1979;-79
2024/02/27 11:39:30;;;;;;;;;;;;;;;20.82;34.44;94970.06;10501934;28;2235;-80
2024/02/27 11:44:31;;;;;;;;;;;;;;;20.85;34.18;94972.13;10508507;28;3059;-80
2024/02/27 11:49:39;;;;;;;;;;;;;;;20.86;34.55;94954.44;10504885;28;2030;-80
2024/02/27 11:54:40;;;;;;;;;;;;;;;20.84;34.41;94965.25;10508555;28;2041;-79
2024/02/27 11:59:44;;;;;;;;;;;;;;;20.90;34.66;94961.47;10500682;28;2050;-79
2024/02/27 12:04:44;;;;;;;;;;;;;;;20.91;34.28;94964.88;10501500;28;2105;-79
2024/02/27 12:09:44;;;;;;;;;;;;;;;20.94;34.51;94964.28;10500325;28;2093;-79
2024/02/27 12:14:44;;;;;;;;;;;;;;;20.91;34.76;94965.66;10503920;28;2117;-78
2024/02/27 12:19:45;;;;;;;;;;;;;;;20.93;34.74;94963.53;10509009;28;2091;-80
2024/02/27 12:24:45;;;;;;;;;;;;;;;20.96;34.81;94957.66;10507972;28;1931;-80
2024/02/27 12:29:45;;;;;;;;;;;;;;;20.96;34.81;94959.50;10507365;28;2471;-80
2024/02/27 12:34:46;;;;;;;;;;;;;;;20.99;34.50;94957.06;10509670;28;1973;-80
2024/02/27 12:39:47;;;;;;;;;;;;;;;20.99;34.67;94977.38;10507825;28;2109;-78
2024/02/27 12:44:47;;;;;;;;;;;;;;;20.98;34.82;94966.03;10509553;28;2037;-79
2024/02/27 12:49:48;;;;;;;;;;;;;;;20.98;34.68;94957.34;10507342;28;2093;-80
2024/02/27 12:54:48;;;;;;;;;;;;;;;20.96;34.83;94959.50;10511060;28;2116;-79
2024/02/27 12:59:48;;;;;;;;;;;;;;;21.00;34.33;94958.63;10505908;28;1922;-80
2024/02/27 13:04:48;;;;;;;;;;;;;;;20.97;34.67;94947.91;10509605;28;2030;-78
2024/02/27 13:09:49;;;;;;;;;;;;;;;21.00;34.54;94947.28;10492947;28;2002;-79
2024/02/27 13:14:49;;;;;;;;;;;;;;;20.97;34.52;94932.88;10507044;28;2096;-79
2024/02/27 13:19:49;;;;;;;;;;;;;;;21.00;34.54;94937.53;10509588;28;2030;-79
2024/02/27 13:24:49;;;;;;;;;;;;;;;20.99;34.26;94940.47;10511024;28;2532;-80
2024/02/27 13:29:50;;;;;;;;;;;;;;;21.01;34.00;94941.75;10506469;28;2014;-80
2024/02/27 13:34:51;;;;;;;;;;;;;;;21.00;34.58;94942.81;10506602;28;2204;-79
2024/02/27 13:39:51;;;;;;;;;;;;;;;21.00;34.17;94936.75;10505194;28;2113;-80
2024/02/27 13:44:51;;;;;;;;;;;;;;;21.02;34.68;94930.16;10506032;28;2056;-80
2024/02/27 13:49:52;;;;;;;;;;;;;;;20.93;34.89;94939.03;10508029;28;2025;-79
2024/02/27 13:54:53;;;;;;;;;;;;;;;20.95;34.69;94942.94;10505315;28;2009;-79
2024/02/27 13:59:53;;;;;;;;;;;;;;;20.84;34.83;94944.19;10508750;28;2029;-78
2024/02/27 14:04:53;;;;;;;;;;;;;;;20.76;35.08;94950.16;10507764;28;2318;-77
2024/02/27 14:09:53;;;;;;;;;;;;;;;20.68;35.59;94955.31;10492114;28;2078;-79
2024/02/27 14:14:54;;;;;;;;;;;;;;;20.66;35.58;94954.84;10508340;28;1986;-79
2024/02/27 14:19:55;;;;;;;;;;;;;;;20.60;35.87;94962.06;10502857;28;2049;-78
2024/02/27 14:24:55;;;;;;;;;;;;;;;20.59;36.14;94962.31;10506601;28;2100;-77
2024/02/27 14:29:56;;;;;;;;;;;;;;;20.55;36.23;94962.13;10502290;28;2044;-77
2024/02/27 14:34:56;;;;;;;;;;;;;;;20.50;36.35;94975.41;10511984;28;1977;-78
2024/02/27 14:39:56;;;;;;;;;;;;;;;20.47;36.58;94967.28;10501703;28;2009;-79
2024/02/27 14:44:57;;;;;;;;;;;;;;;20.48;36.36;94963.59;10504238;28;2253;-78
2024/02/27 14:49:57;;;;;;;;;;;;;;;20.49;36.07;94971.22;10502961;28;2058;-79
2024/02/27 14:55:00;;;;;;;;;;;;;;;20.51;35.83;94974.31;10507808;28;1906;-78
2024/02/27 15:00:00;;;;;;;;;;;;;;;20.58;35.78;94976.59;10509434;28;2005;-78
2024/02/27 15:05:00;;;;;;;;;;;;;;;20.57;36.14;94983.69;10500313;28;2018;-78
2024/02/27 15:10:01;;;;;;;;;;;;;;;20.63;35.96;94982.53;10501583;28;1955;-77
2024/02/27 15:15:01;;;;;;;;;;;;;;;20.66;35.98;94981.94;10504657;28;1975;-78
2024/02/27 15:20:03;;;;;;;;;;;;;;;20.71;35.52;94989.75;10503043;28;2101;-78
2024/02/27 15:25:06;;;;;;;;;;;;;;;20.74;35.46;94983.13;10499379;28;1958;-79
2024/02/27 15:30:06;;;;;;;;;;;;;;;20.79;35.32;94985.66;10499270;28;2132;-80
2024/02/27 15:35:07;;;;;;;;;;;;;;;20.79;35.47;94988.31;10502040;28;2390;-78
2024/02/27 15:40:07;;;;;;;;;;;;;;;20.80;35.31;94998.53;10510463;28;1962;-77
2024/02/27 15:45:08;;;;;;;;;;;;;;;20.84;35.16;95002.16;10504773;28;2074;-77
2024/02/27 15:50:08;;;;;;;;;;;;;;;20.87;35.20;95019.22;10497387;28;2054;-77
2024/02/27 15:55:08;;;;;;;;;;;;;;;20.87;34.99;95022.66;10505885;28;2123;-78
2024/02/27 16:00:10;;;;;;;;;;;;;;;20.89;35.12;95023.13;10507693;28;2033;-78
2024/02/27 16:05:11;;;;;;;;;;;;;;;20.90;34.96;95027.31;10521647;28;2324;-77
2024/02/27 16:10:11;;;;;;;;;;;;;;;20.89;34.70;95025.78;10501399;28;2258;-78
2024/02/27 16:15:11;;;;;;;;;;;;;;;20.89;34.80;95031.03;10502408;28;1967;-78
2024/02/27 16:20:12;;;;;;;;;;;;;;;20.91;34.73;95026.25;10501890;28;2086;-75
2024/02/27 16:25:12;;;;;;;;;;;;;;;20.90;34.46;95039.69;10511004;28;2049;-76
2024/02/27 16:30:14;;;;;;;;;;;;;;;20.90;34.55;95048.41;10504471;28;2308;-74
2024/02/27 16:35:15;;;;;;;;;;;;;;;20.92;34.59;95048.88;10503824;28;2029;-75
2024/02/27 16:40:15;;;;;;;;;;;;;;;20.95;34.64;95052.78;10509522;28;1950;-74
2024/02/27 16:45:15;;;;;;;;;;;;;;;20.96;34.24;95060.41;10497348;28;1985;-75
2024/02/27 16:50:17;;;;;;;;;;;;;;;20.97;34.51;95064.59;10496351;28;2030;-74
2024/02/27 16:55:17;;;;;;;;;;;;;;;20.98;34.95;95071.41;10501533;28;1995;-74
2024/02/27 17:00:18;;;;;;;;;;;;;;;20.96;34.33;95068.31;10498144;28;2088;-75
2024/02/27 17:05:18;;;;;;;;;;;;;;;20.99;34.27;95077.47;10510990;28;2030;-76
2024/02/27 17:10:18;;;;;;;;;;;;;;;21.01;34.47;95076.13;10509703;28;2053;-78
2024/02/27 17:15:19;;;;;;;;;;;;;;;21.01;35.04;95076.13;10503216;28;2049;-74
2024/02/27 17:20:19;;;;;;;;;;;;;;;21.06;34.46;95099.00;10509267;28;1916;-74
2024/02/27 17:25:19;;;;;;;;;;;;;;;21.11;34.36;95103.38;10503247;28;2336;-77
2024/02/27 17:30:19;;;;;;;;;;;;;;;21.21;34.33;95103.97;10510637;28;2089;-74
2024/02/27 17:35:20;;;;;;;;;;;;;;;21.29;34.41;95113.06;10511146;28;1905;-75
2024/02/27 17:40:20;;;;;;;;;;;;;;;21.32;34.28;95118.53;10502166;28;1982;-73
2024/02/27 17:45:20;;;;;;;;;;;;;;;21.33;34.19;95132.50;10511275;28;1959;-72
2024/02/27 17:50:21;;;;;;;;;;;;;;;21.37;34.21;95146.66;10510683;28;2071;-74
2024/02/27 17:55:21;;;;;;;;;;;;;;;21.34;35.01;95148.00;10503643;28;2112;-75
2024/02/27 18:00:21;;;;;;;;;;;;;;;21.33;35.06;95151.72;10509912;28;2049;-75
2024/02/27 18:05:22;;;;;;;;;;;;;;;21.35;34.78;95159.34;10502293;28;1943;-75
2024/02/27 18:10:22;;;;;;;;;;;;;;;21.45;34.61;95165.19;10504837;28;2120;-76
2024/02/27 18:15:24;;;;;;;;;;;;;;;21.37;34.83;95163.22;10507069;28;2437;-75
2024/02/27 18:20:26;;;;;;;;;;;;;;;21.39;35.05;95150.53;10499291;28;2051;-75
2024/02/27 18:25:28;;;;;;;;;;;;;;;21.42;35.12;95149.19;10500020;28;2069;-74
2024/02/27 18:30:29;;;;;;;;;;;;;;;21.48;34.30;95153.28;10493362;28;2002;-75
2024/02/27 18:35:30;;;;;;;;;;;;;;;21.45;34.26;95161.78;10498688;28;2166;-74
2024/02/27 18:40:32;;;;;;;;;;;;;;;21.48;34.84;95166.47;10509926;28;2113;-73
2024/02/27 18:45:32;;;;;;;;;;;;;;;21.47;34.53;95180.75;10511856;28;1799;-74
2024/02/27 18:50:35;;;;;;;;;;;;;;;21.43;35.29;95177.88;10516496;28;1596;-74
2024/02/27 18:55:36;;;;;;;;;;;;;;;21.45;35.14;95185.53;10515811;28;1910;-73
2024/02/27 19:00:36;;;;;;;;;;;;;;;21.45;35.28;95182.88;10515637;28;2247;-75
2024/02/27 19:05:36;;;;;;;;;;;;;;;21.47;35.38;95191.28;10510399;28;1666;-76
2024/02/27 19:10:37;;;;;;;;;;;;;;;21.44;35.17;95187.38;10509440;28;1728;-75
2024/02/27 19:15:37;;;;;;;;;;;;;;;21.47;35.70;95196.56;10517213;28;1906;-76
2024/02/27 19:20:38;;;;;;;;;;;;;;;21.47;35.53;95199.19;10519954;28;1581;-74
2024/02/27 19:25:39;;;;;;;;;;;;;;;21.51;35.55;95205.44;10517445;28;1925;-74
2024/02/27 19:30:39;;;;;;;;;;;;;;;21.49;36.20;95212.88;10507878;28;1990;-73
2024/02/27 19:35:39;;;;;;;;;;;;;;;21.50;35.94;95209.94;10507728;28;1976;-75
2024/02/27 19:40:40;;;;;;;;;;;;;;;21.51;36.25;95211.50;10503034;28;1941;-74
2024/02/27 19:45:40;;;;;;;;;;;;;;;21.49;36.16;95218.16;10499573;28;2334;-76
2024/02/27 19:50:40;;;;;;;;;;;;;;;21.49;36.54;95228.69;10499247;28;2067;-77
2024/02/27 19:55:40;;;;;;;;;;;;;;;21.51;36.22;95229.97;10508407;28;2266;-77
2024/02/27 20:00:41;;;;;;;;;;;;;;;21.52;36.10;95233.38;10499731;28;2120;-77
2024/02/27 20:05:41;;;;;;;;;;;;;;;21.54;36.20;95237.28;10502114;28;1842;-73
2024/02/27 20:10:42;;;;;;;;;;;;;;;21.53;36.34;95238.38;10509321;28;2108;-75
2024/02/27 20:15:43;;;;;;;;;;;;;;;21.50;36.58;95246.06;10505250;28;2125;-75
2024/02/27 20:20:43;;;;;;;;;;;;;;;21.50;36.15;95251.34;10499247;28;2112;-74
2024/02/27 20:25:43;;;;;;;;;;;;;;;21.51;36.25;95248.44;10494887;28;1963;-80
2024/02/27 20:30:44;;;;;;;;;;;;;;;21.57;35.52;95257.03;10502368;28;2006;-72
2024/02/27 20:35:46;;;;;;;;;;;;;;;21.51;36.12;95252.91;10502000;28;2073;-68
2024/02/27 20:40:46;;;;;;;;;;;;;;;21.52;35.97;95259.75;10509859;28;2447;-69
2024/02/27 20:45:46;;;;;;;;;;;;;;;21.68;34.97;95264.44;10511324;28;1954;-68
2024/02/27 20:50:47;;;;;;;;;;;;;;;21.64;34.28;95274.03;10509576;28;1895;-68
2024/02/27 20:55:47;;;;;;;;;;;;;;;21.68;34.00;95279.50;10504660;28;1958;-70
2024/02/27 21:00:47;;;;;;;;;;;;;;;21.70;34.29;95282.66;10514817;28;2085;-68
2024/02/27 21:05:48;;;;;;;;;;;;;;;21.75;33.82;95287.81;10506239;28;1983;-78
2024/02/27 21:10:48;;;;;;;;;;;;;;;21.81;34.72;95294.56;10493037;28;1983;-77
2024/02/27 21:15:49;;;;;;;;;;;;;;;21.76;33.77;95297.31;10518716;28;1984;-76
2024/02/27 21:20:49;;;;;;;;;;;;;;;21.71;34.55;95300.81;10512668;28;2014;-69
2024/02/27 21:25:49;;;;;;;;;;;;;;;21.58;35.80;95301.56;10515506;28;1994;-76
2024/02/27 21:30:49;;;;;;;;;;;;;;;21.39;37.11;95297.44;10508585;28;2503;-76
2024/02/27 21:35:50;;;;;;;;;;;;;;;21.31;37.59;95295.47;10513741;28;2008;-77
2024/02/27 21:40:50;;;;;;;;;;;;;;;21.27;36.29;95299.75;10502311;28;1973;-76
2024/02/27 21:45:51;;;;;;;;;;;;;;;21.17;37.14;95305.16;10514917;28;2245;-75
2024/02/27 21:50:52;;;;;;;;;;;;;;;21.04;37.30;95306.69;10508040;28;2055;-76
2024/02/27 21:55:52;;;;;;;;;;;;;;;20.97;37.80;95317.56;10514474;28;2042;-76
2024/02/27 22:00:53;;;;;;;;;;;;;;;20.91;38.04;95321.31;10511626;28;2105;-77
2024/02/27 22:05:53;;;;;;;;;;;;;;;20.83;38.18;95321.19;10510617;28;1968;-76
2024/02/27 22:10:54;;;;;;;;;;;;;;;20.79;38.42;95325.47;10507156;28;1887;-75
2024/02/27 22:15:55;;;;;;;;;;;;;;;20.74;38.22;95330.78;10507518;28;2252;-74
2024/02/27 22:20:56;;;;;;;;;;;;;;;20.69;38.04;95328.22;10505915;28;2042;-76
2024/02/27 22:25:56;;;;;;;;;;;;;;;20.64;38.58;95334.34;10497605;28;1969;-76
2024/02/27 22:30:56;;;;;;;;;;;;;;;20.61;38.22;95342.78;10499240;28;2011;-75
2024/02/27 22:35:57;;;;;;;;;;;;;;;20.56;38.41;95353.41;10497271;28;2088;-76
2024/02/27 22:40:57;;;;;;;;;;;;;;;20.54;38.52;95357.38;10513066;28;1982;-76
2024/02/27 22:45:57;;;;;;;;;;;;;;;20.49;38.48;95352.97;10499195;28;2030;-76
2024/02/27 22:50:57;;;;;;;;;;;;;;;20.46;38.20;95361.44;10506901;28;2028;-76
2024/02/27 22:55:58;;;;;;;;;;;;;;;20.42;38.53;95370.97;10505048;28;2041;-76
2024/02/27 23:00:58;;;;;;;;;;;;;;;20.38;38.72;95367.28;10502844;28;2000;-76
2024/02/27 23:05:58;;;;;;;;;;;;;;;20.36;38.66;95373.94;10510707;28;1936;-77
2024/02/27 23:10:58;;;;;;;;;;;;;;;20.32;38.64;95381.59;10505410;28;2514;-76
2024/02/27 23:15:59;;;;;;;;;;;;;;;20.30;38.51;95391.59;10496869;28;2089;-75
2024/02/27 23:20:59;;;;;;;;;;;;;;;20.28;38.53;95391.09;10502668;28;1904;-76
2024/02/27 23:26:00;;;;;;;;;;;;;;;20.25;38.72;95394.31;10501803;28;2148;-77
2024/02/27 23:31:02;;;;;;;;;;;;;;;20.23;38.65;95399.06;10508499;28;2109;-77
2024/02/27 23:36:03;;;;;;;;;;;;;;;20.21;38.85;95388.03;10498860;28;2075;-77
2024/02/27 23:41:03;;;;;;;;;;;;;;;20.18;38.51;95393.81;10508684;28;2061;-76
2024/02/27 23:46:03;;;;;;;;;;;;;;;20.16;38.92;95393.31;10498966;28;2047;-76
2024/02/27 23:51:04;;;;;;;;;;;;;;;20.13;38.86;95407.03;10497551;28;2100;-76
2024/02/27 23:56:04;;;;;;;;;;;;;;;20.11;38.58;95403.91;10508181;28;1990;-75
